createdAt,value
2022-09-07T00:01:07.837Z,1.20
2022-09-07T00:03:36.816Z,0.97
2022-09-07T00:06:08.804Z,1.13
2022-09-07T00:08:37.317Z,1.00
2022-09-07T00:11:09.100Z,1.67
2022-09-07T00:13:40.121Z,0.90
2022-09-07T00:16:11.062Z,1.10
2022-09-07T00:18:45.090Z,0.87
2022-09-07T00:21:14.666Z,1.47
2022-09-07T00:23:42.873Z,1.20
2022-09-07T00:26:14.799Z,1.03
2022-09-07T00:28:44.077Z,1.07
2022-09-07T00:31:14.307Z,1.00
2022-09-07T00:33:43.099Z,1.03
2022-09-07T00:36:11.667Z,1.30
2022-09-07T00:38:40.043Z,0.97
2022-09-07T00:41:08.559Z,1.10
2022-09-07T00:43:41.318Z,1.20
2022-09-07T00:46:15.510Z,1.30
2022-09-07T00:48:48.659Z,1.00
2022-09-07T00:51:22.792Z,1.10
2022-09-07T00:53:54.394Z,1.17
2022-09-07T00:56:25.444Z,1.73
2022-09-07T00:58:55.399Z,1.50
2022-09-07T01:01:24.111Z,1.10
2022-09-07T01:03:54.959Z,1.47
2022-09-07T01:06:26.277Z,1.40
2022-09-07T01:08:56.274Z,1.30
2022-09-07T01:11:25.006Z,1.00
2022-09-07T01:13:58.036Z,1.60
2022-09-07T01:16:42.583Z,1.13
2022-09-07T01:19:34.693Z,1.30
2022-09-07T01:22:19.460Z,1.20
2022-09-07T01:25:00.065Z,1.10
2022-09-07T01:28:02.947Z,1.17
2022-09-07T01:30:36.131Z,1.37
2022-09-07T01:33:18.132Z,1.20
2022-09-07T01:35:52.460Z,0.93
2022-09-07T01:38:27.501Z,1.33
2022-09-07T01:41:03.222Z,1.10
2022-09-07T01:43:40.622Z,1.10
2022-09-07T01:46:22.063Z,1.07
2022-09-07T01:48:53.468Z,1.00
2022-09-07T01:51:23.622Z,1.50
2022-09-07T01:53:55.771Z,0.93
2022-09-07T01:56:31.154Z,1.40
2022-09-07T01:59:04.803Z,0.93
2022-09-07T02:01:37.211Z,1.93
2022-09-07T02:04:09.921Z,1.00
2022-09-07T02:06:43.770Z,1.20
2022-09-07T02:09:19.994Z,1.23
2022-09-07T02:11:50.112Z,1.40
2022-09-07T02:14:23.744Z,1.00
2022-09-07T02:16:57.068Z,0.93
2022-09-07T02:19:28.060Z,1.27
2022-09-07T02:22:01.822Z,1.43
2022-09-07T02:24:35.271Z,1.30
2022-09-07T02:27:08.382Z,1.77
2022-09-07T02:29:38.470Z,1.23
2022-09-07T02:32:07.176Z,1.23
2022-09-07T02:34:35.480Z,1.50
2022-09-07T02:37:07.352Z,1.90
2022-09-07T02:39:35.612Z,1.40
2022-09-07T02:42:04.257Z,2.03
2022-09-07T02:44:36.682Z,1.47
2022-09-07T02:47:20.839Z,1.47
2022-09-07T02:50:08.892Z,1.57
2022-09-07T02:52:47.033Z,2.20
2022-09-07T02:55:27.805Z,1.60
2022-09-07T02:58:17.542Z,1.73
2022-09-07T03:00:55.431Z,1.60
2022-09-07T03:03:34.575Z,1.83
2022-09-07T03:06:05.696Z,2.13
2022-09-07T03:08:39.189Z,2.30
2022-09-07T03:11:08.465Z,2.17
2022-09-07T03:13:36.653Z,2.40
2022-09-07T03:16:05.003Z,2.17
2022-09-07T03:18:34.554Z,2.90
2022-09-07T03:21:02.700Z,2.57
2022-09-07T03:23:30.894Z,2.40
2022-09-07T03:25:58.996Z,2.57
2022-09-07T03:28:27.346Z,2.00
2022-09-07T03:30:55.617Z,2.20
2022-09-07T03:33:23.893Z,2.33
2022-09-07T03:36:02.367Z,3.20
2022-09-07T03:38:31.459Z,2.30
2022-09-07T03:41:01.183Z,2.20
2022-09-07T03:43:29.828Z,2.87
2022-09-07T03:45:59.402Z,2.80
2022-09-07T03:48:27.916Z,2.70
2022-09-07T03:51:02.553Z,2.40
2022-09-07T03:53:33.122Z,3.17
2022-09-07T03:56:02.991Z,2.67
2022-09-07T03:58:32.780Z,2.57
2022-09-07T04:01:05.361Z,2.70
2022-09-07T04:03:33.614Z,2.03
2022-09-07T04:06:04.096Z,2.33
2022-09-07T04:08:34.076Z,2.73
2022-09-07T04:11:04.327Z,2.63
2022-09-07T04:13:34.883Z,2.20
2022-09-07T04:16:10.943Z,2.83
2022-09-07T04:18:39.143Z,3.00
2022-09-07T04:21:08.939Z,2.93
2022-09-07T04:23:39.242Z,2.53
2022-09-07T04:26:08.186Z,2.67
2022-09-07T04:28:36.325Z,2.27
2022-09-07T04:31:04.511Z,2.10
2022-09-07T04:33:32.911Z,2.90
2022-09-07T04:36:01.849Z,2.80
2022-09-07T04:38:31.780Z,3.20
2022-09-07T04:41:01.790Z,2.67
2022-09-07T04:43:30.178Z,2.70
2022-09-07T04:45:58.957Z,2.83
2022-09-07T04:48:28.147Z,2.57
2022-09-07T04:50:56.460Z,2.97
2022-09-07T04:53:24.670Z,3.27
2022-09-07T04:55:54.130Z,2.87
2022-09-07T04:58:22.328Z,2.80
2022-09-07T05:00:50.656Z,2.77
2022-09-07T05:03:18.911Z,2.63
2022-09-07T05:05:47.184Z,2.63
2022-09-07T05:08:15.333Z,3.20
2022-09-07T05:10:53.661Z,3.00
2022-09-07T05:13:22.087Z,3.50
2022-09-07T05:15:50.281Z,3.50
2022-09-07T05:18:18.495Z,2.93
2022-09-07T05:20:46.687Z,3.20
2022-09-07T05:23:14.883Z,4.10
2022-09-07T05:25:44.651Z,3.23
2022-09-07T05:28:19.302Z,3.40
2022-09-07T05:36:25.715Z,2.90
2022-09-07T05:38:54.581Z,2.90
2022-09-07T05:41:24.352Z,2.87
2022-09-07T05:46:43.122Z,3.20
2022-09-07T05:49:36.406Z,3.10
2022-09-07T05:52:04.826Z,3.37
2022-09-07T05:54:32.981Z,3.70
2022-09-07T05:57:03.105Z,3.00
2022-09-07T05:59:32.716Z,2.50
2022-09-07T06:02:01.663Z,3.13
2022-09-07T06:04:29.909Z,2.67
2022-09-07T06:07:21.065Z,2.30
2022-09-07T06:12:34.647Z,2.77
2022-09-07T06:15:05.523Z,2.53
2022-09-07T06:17:33.943Z,2.60
2022-09-07T06:20:02.227Z,2.50
2022-09-07T06:22:31.292Z,2.30
2022-09-07T06:25:00.132Z,2.03
2022-09-07T06:27:28.622Z,2.20
2022-09-07T06:29:57.035Z,2.70
2022-09-07T06:35:11.319Z,2.93
2022-09-07T06:37:39.669Z,2.83
2022-09-07T06:40:11.075Z,2.50
2022-09-07T06:42:39.561Z,2.10
2022-09-07T06:45:11.412Z,2.10
2022-09-07T06:47:41.650Z,1.60
2022-09-07T06:50:10.890Z,2.13
2022-09-07T06:55:28.652Z,1.97
2022-09-07T06:57:57.029Z,1.67
2022-09-07T07:00:25.256Z,1.67
2022-09-07T07:02:54.872Z,2.13
2022-09-07T07:05:23.083Z,1.70
2022-09-07T07:07:52.567Z,2.00
2022-09-07T07:10:24.548Z,1.63
2022-09-07T07:12:57.353Z,1.63
2022-09-07T07:15:27.631Z,1.50
2022-09-07T07:18:05.182Z,0.97
2022-09-07T07:20:37.924Z,1.50
2022-09-07T07:23:06.606Z,1.70
2022-09-07T07:25:35.449Z,1.50
2022-09-07T07:30:56.333Z,1.67
2022-09-07T07:33:26.942Z,1.30
2022-09-07T07:35:55.065Z,1.40
2022-09-07T07:44:00.558Z,1.67
2022-09-07T07:46:30.302Z,1.60
2022-09-07T07:49:00.176Z,2.00
2022-09-07T07:51:28.824Z,1.97
2022-09-07T07:53:58.172Z,1.87
2022-09-07T07:56:26.709Z,1.60
2022-09-07T07:58:54.938Z,1.73
2022-09-07T08:01:23.250Z,2.43
2022-09-07T08:03:51.977Z,1.93
2022-09-07T08:06:22.642Z,1.67
2022-09-07T08:08:51.172Z,2.27
2022-09-07T08:11:22.006Z,2.30
2022-09-07T08:13:52.109Z,1.97
2022-09-07T08:16:20.596Z,1.90
2022-09-07T08:18:49.032Z,2.00
2022-09-07T08:21:17.697Z,1.60
2022-09-07T08:23:47.038Z,2.40
2022-09-07T08:26:15.069Z,2.40
2022-09-07T08:28:45.393Z,2.03
2022-09-07T08:31:15.117Z,2.33
2022-09-07T08:33:43.387Z,2.80
2022-09-07T08:36:14.049Z,1.90
2022-09-07T08:38:42.656Z,1.70
2022-09-07T08:41:48.092Z,2.20
2022-09-07T08:44:23.585Z,1.93
2022-09-07T08:46:55.890Z,2.07
2022-09-07T08:49:28.884Z,2.30
2022-09-07T08:52:00.683Z,1.93
2022-09-07T08:54:29.187Z,2.10
2022-09-07T09:00:03.311Z,2.70
2022-09-07T09:02:35.151Z,2.87
2022-09-07T09:05:17.470Z,2.17
2022-09-07T09:07:57.607Z,2.67
2022-09-07T09:10:35.806Z,2.70
2022-09-07T09:13:16.674Z,2.20
2022-09-07T09:16:00.332Z,2.63
2022-09-07T09:18:47.924Z,2.17
2022-09-07T09:21:18.712Z,2.70
2022-09-07T09:23:49.640Z,2.57
2022-09-07T09:26:23.418Z,2.87
2022-09-07T09:28:53.155Z,3.03
2022-09-07T09:31:23.181Z,3.30
2022-09-07T09:34:09.918Z,2.20
2022-09-07T09:36:43.371Z,2.93
2022-09-07T09:39:32.741Z,2.40
2022-09-07T09:42:14.976Z,2.70
2022-09-07T09:44:45.423Z,2.60
2022-09-07T09:47:30.378Z,2.10
2022-09-07T09:50:00.853Z,2.57
2022-09-07T09:52:42.201Z,1.50
2022-09-07T09:55:34.869Z,1.87
2022-09-07T10:03:58.334Z,2.10
2022-09-07T10:06:29.479Z,2.27
2022-09-07T10:08:58.935Z,2.10
2022-09-07T10:14:35.223Z,2.43
2022-09-07T10:17:13.288Z,2.33
2022-09-07T10:19:43.978Z,2.23
2022-09-07T10:22:34.608Z,3.67
2022-09-07T10:25:04.538Z,3.53
2022-09-07T10:27:35.177Z,3.13
2022-09-07T10:30:06.846Z,2.60
2022-09-07T10:32:51.013Z,2.57
2022-09-07T10:35:25.196Z,2.70
2022-09-07T10:38:02.547Z,2.83
2022-09-07T10:40:35.160Z,2.37
2022-09-07T10:43:24.028Z,2.70
2022-09-07T10:46:03.543Z,2.93
2022-09-07T10:48:38.708Z,2.67
2022-09-07T10:51:14.648Z,2.27
2022-09-07T10:53:47.558Z,1.87
2022-09-07T10:56:21.886Z,2.30
2022-09-07T10:59:04.263Z,2.10
2022-09-07T11:01:43.477Z,2.23
2022-09-07T11:04:33.116Z,2.33
2022-09-07T11:07:10.272Z,2.30
2022-09-07T11:09:52.823Z,2.20
2022-09-07T11:12:28.056Z,2.57
2022-09-07T11:15:06.763Z,2.10
2022-09-07T11:17:44.225Z,2.63
2022-09-07T11:20:23.137Z,2.40
2022-09-07T11:22:55.080Z,2.40
2022-09-07T11:25:30.009Z,2.30
2022-09-07T11:28:02.178Z,2.27
2022-09-07T11:31:00.597Z,2.23
2022-09-07T11:33:33.022Z,2.30
2022-09-07T11:36:11.320Z,2.10
2022-09-07T11:38:46.310Z,2.40
2022-09-07T11:41:22.181Z,2.23
2022-09-07T11:44:01.433Z,2.30
2022-09-07T11:46:35.526Z,2.33
2022-09-07T11:49:07.774Z,2.10
2022-09-07T11:51:42.883Z,2.10
2022-09-07T11:54:43.187Z,2.40
2022-09-07T11:57:35.131Z,1.90
2022-09-07T12:00:09.052Z,1.60
2022-09-07T12:03:31.505Z,1.90
2022-09-07T12:06:27.075Z,1.50
2022-09-07T12:09:10.482Z,1.80
2022-09-07T12:12:08.090Z,2.00
2022-09-07T12:14:45.703Z,2.03
2022-09-07T12:17:27.692Z,2.60
2022-09-07T12:20:20.063Z,1.23
2022-09-07T12:23:04.335Z,1.30
2022-09-07T12:25:35.755Z,1.27
2022-09-07T12:28:04.101Z,1.33
2022-09-07T12:30:53.414Z,1.00
2022-09-07T12:33:27.816Z,1.43
2022-09-07T12:35:58.824Z,1.27
2022-09-07T12:39:00.399Z,0.90
2022-09-07T12:42:32.666Z,1.20
2022-09-07T12:45:34.419Z,1.30
2022-09-07T12:48:09.052Z,1.30
2022-09-07T12:50:42.665Z,1.00
2022-09-07T12:53:29.875Z,1.20
2022-09-07T12:56:20.776Z,1.20
2022-09-07T12:59:03.997Z,0.90
2022-09-07T13:01:44.177Z,1.17
2022-09-07T13:04:28.473Z,1.00
2022-09-07T13:07:18.675Z,1.37
2022-09-07T13:09:57.470Z,1.20
2022-09-07T13:13:02.108Z,0.87
2022-09-07T13:15:44.181Z,1.00
2022-09-07T13:18:28.355Z,0.90
2022-09-07T13:21:32.223Z,0.90
2022-09-07T13:24:46.791Z,0.83
2022-09-07T13:27:44.704Z,0.90
2022-09-07T13:30:31.845Z,1.17
2022-09-07T13:33:36.974Z,0.90
2022-09-07T13:36:14.378Z,0.90
2022-09-07T13:38:45.028Z,1.40
2022-09-07T13:41:16.912Z,0.80
2022-09-07T13:43:48.880Z,0.93
2022-09-07T13:46:40.810Z,0.90
2022-09-07T13:49:22.720Z,0.80
2022-09-07T13:52:01.066Z,0.90
2022-09-07T13:54:47.495Z,0.80
2022-09-07T13:57:23.348Z,1.00
2022-09-07T13:59:52.866Z,0.80
2022-09-07T14:02:24.855Z,0.90
2022-09-07T14:04:55.824Z,0.90
2022-09-07T14:07:26.631Z,1.00
2022-09-07T14:10:12.987Z,1.30
2022-09-07T14:12:46.096Z,0.80
2022-09-07T14:15:23.619Z,1.13
2022-09-07T14:18:03.026Z,0.80
2022-09-07T14:20:32.367Z,0.83
2022-09-07T14:23:02.095Z,0.80
2022-09-07T14:25:30.368Z,0.87
2022-09-07T14:28:00.380Z,1.07
2022-09-07T14:30:30.303Z,1.00
2022-09-07T14:33:01.658Z,1.00
2022-09-07T14:35:33.530Z,1.10
2022-09-07T14:38:07.923Z,0.73
2022-09-07T14:40:36.727Z,0.80
2022-09-07T14:43:05.170Z,0.90
2022-09-07T14:45:34.968Z,0.83
2022-09-07T14:48:13.573Z,1.10
2022-09-07T14:50:54.030Z,1.10
2022-09-07T14:53:35.436Z,0.70
2022-09-07T14:56:10.055Z,1.50
2022-09-07T14:58:38.069Z,1.33
2022-09-07T15:04:00.810Z,1.27
2022-09-07T15:09:31.209Z,1.17
2022-09-07T15:12:18.179Z,1.00
2022-09-07T15:14:47.661Z,0.87
2022-09-07T15:20:32.307Z,0.90
2022-09-07T15:23:00.645Z,1.00
2022-09-07T15:25:30.629Z,0.97
2022-09-07T15:27:58.903Z,0.83
2022-09-07T15:30:27.381Z,0.80
2022-09-07T15:32:57.369Z,1.00
2022-09-07T15:35:25.989Z,1.10
2022-09-07T15:38:02.550Z,0.90
2022-09-07T15:41:10.470Z,0.80
2022-09-07T15:43:33.170Z,0.93
2022-09-07T15:46:03.510Z,0.90
2022-09-07T15:48:32.020Z,1.30
2022-09-07T15:52:04.687Z,0.90
2022-09-07T15:54:13.433Z,1.00
2022-09-07T15:56:44.415Z,0.90
2022-09-07T15:59:31.575Z,1.43
2022-09-07T16:02:00.011Z,1.03
2022-09-07T16:04:28.284Z,1.13
2022-09-07T16:06:56.365Z,1.63
2022-09-07T16:09:24.556Z,1.20
2022-09-07T16:11:54.538Z,0.97
2022-09-07T16:14:23.001Z,1.43
2022-09-07T16:19:41.003Z,1.50
2022-09-07T16:22:09.645Z,1.47
2022-09-07T16:24:38.486Z,1.70
2022-09-07T16:27:08.417Z,1.67
2022-09-07T16:29:36.820Z,1.70
2022-09-07T16:34:53.568Z,1.57
2022-09-07T16:37:22.011Z,1.50
2022-09-07T16:39:51.146Z,1.07
2022-09-07T16:42:20.993Z,1.10
2022-09-07T16:44:49.343Z,1.30
2022-09-07T16:47:17.532Z,1.30
2022-09-07T16:49:45.585Z,1.10
2022-09-07T16:52:13.562Z,1.40
2022-09-07T16:54:41.713Z,1.17
2022-09-07T16:57:10.172Z,1.10
2022-09-07T16:59:39.572Z,1.00
2022-09-07T17:02:07.839Z,1.20
2022-09-07T17:04:35.901Z,1.30
2022-09-07T17:07:03.951Z,1.10
2022-09-07T17:09:31.924Z,1.10
2022-09-07T17:12:00.014Z,0.90
2022-09-07T17:14:29.082Z,1.20
2022-09-07T17:16:59.026Z,1.10
2022-09-07T17:19:29.180Z,1.10
2022-09-07T17:21:59.703Z,1.37
2022-09-07T17:24:28.275Z,1.10
2022-09-07T17:26:56.746Z,1.03
2022-09-07T17:29:30.334Z,0.80
2022-09-07T17:34:49.967Z,0.90
2022-09-07T17:37:18.291Z,0.90
2022-09-07T17:39:46.338Z,1.20
2022-09-07T17:42:14.359Z,0.97
2022-09-07T17:44:42.479Z,1.70
2022-09-07T17:47:13.043Z,0.83
2022-09-07T17:49:41.048Z,1.10
2022-09-07T17:52:09.189Z,0.90
2022-09-07T17:54:37.208Z,1.00
2022-09-07T17:57:05.830Z,1.10
2022-09-07T18:02:24.464Z,0.90
2022-09-07T18:04:52.952Z,0.87
2022-09-07T18:07:21.168Z,0.90
2022-09-07T18:09:49.134Z,0.90
2022-09-07T18:12:17.272Z,0.90
2022-09-07T18:14:45.531Z,0.80
2022-09-07T18:17:13.611Z,0.90
2022-09-07T18:19:43.067Z,0.90
2022-09-07T18:22:11.125Z,1.00
2022-09-07T18:24:39.269Z,0.80
2022-09-07T18:27:07.826Z,0.90
2022-09-07T18:29:35.980Z,1.10
2022-09-07T18:32:08.730Z,1.33
2022-09-07T18:34:37.771Z,1.20
2022-09-07T18:37:08.204Z,0.93
2022-09-07T18:39:37.117Z,1.00
2022-09-07T18:42:05.431Z,0.97
2022-09-07T18:47:28.485Z,1.03
2022-09-07T18:49:58.044Z,1.10
2022-09-07T18:55:16.481Z,1.27
2022-09-07T18:57:44.935Z,1.07
2022-09-07T19:00:14.429Z,1.10
2022-09-07T19:02:42.917Z,1.17
2022-09-07T19:08:03.216Z,1.00
2022-09-07T19:10:34.821Z,1.10
2022-09-07T19:13:03.070Z,1.37
2022-09-07T19:15:36.807Z,1.00
2022-09-07T19:18:06.918Z,1.03
2022-09-07T19:20:35.355Z,1.67
2022-09-07T19:23:05.003Z,1.13
2022-09-07T19:25:33.136Z,0.93
2022-09-07T19:28:01.211Z,0.90
2022-09-07T19:30:30.415Z,1.13
2022-09-07T19:33:03.376Z,1.17
2022-09-07T19:35:36.175Z,1.20
2022-09-07T19:38:06.040Z,1.43
2022-09-07T19:40:34.393Z,0.90
2022-09-07T19:43:02.738Z,1.10
2022-09-07T19:45:30.825Z,1.10
2022-09-07T19:47:59.358Z,1.20
2022-09-07T19:50:27.700Z,1.40
2022-09-07T19:52:55.779Z,0.93
2022-09-07T19:55:25.336Z,1.33
2022-09-07T19:57:53.349Z,1.20
2022-09-07T20:00:22.613Z,1.50
2022-09-07T20:02:51.370Z,1.23
2022-09-07T20:05:20.090Z,1.47
2022-09-07T20:07:48.109Z,1.30
2022-09-07T20:10:16.583Z,1.07
2022-09-07T20:12:46.000Z,1.17
2022-09-07T20:15:14.072Z,1.10
2022-09-07T20:17:42.324Z,1.50
2022-09-07T20:20:11.065Z,1.40
2022-09-07T20:22:39.160Z,1.60
2022-09-07T20:25:12.528Z,1.37
2022-09-07T20:27:41.479Z,1.30
2022-09-07T20:30:12.482Z,1.00
2022-09-07T20:32:40.508Z,1.33
2022-09-07T20:35:09.190Z,1.20
2022-09-07T20:37:37.431Z,1.40
2022-09-07T20:40:06.627Z,1.30
2022-09-07T20:42:34.795Z,1.43
2022-09-07T20:45:03.503Z,1.27
2022-09-07T20:47:32.918Z,1.60
2022-09-07T20:50:01.347Z,1.50
2022-09-07T20:52:29.536Z,1.40
2022-09-07T20:54:57.735Z,1.47
2022-09-07T20:57:25.745Z,1.17
2022-09-07T20:59:53.903Z,1.37
2022-09-07T21:02:22.001Z,1.33
2022-09-07T21:04:51.579Z,1.13
2022-09-07T21:07:19.749Z,1.30
2022-09-07T21:09:47.865Z,1.20
2022-09-07T21:12:16.019Z,1.27
2022-09-07T21:14:45.771Z,1.40
2022-09-07T21:17:14.051Z,1.33
2022-09-07T21:19:42.215Z,1.60
2022-09-07T21:22:11.909Z,1.40
2022-09-07T21:24:40.024Z,1.53
2022-09-07T21:27:08.292Z,1.37
2022-09-07T21:29:36.318Z,1.80
2022-09-07T21:32:05.232Z,1.50
2022-09-07T21:34:33.563Z,1.20
2022-09-07T21:37:01.611Z,1.43
2022-09-07T21:39:31.196Z,1.43
2022-09-07T21:41:59.734Z,1.00
2022-09-07T21:44:28.103Z,1.40
2022-09-07T21:46:56.432Z,1.40
2022-09-07T21:49:24.830Z,1.30
2022-09-07T21:51:53.167Z,1.23
2022-09-07T21:54:21.223Z,1.20
2022-09-07T21:56:50.712Z,1.53
2022-09-07T21:59:19.023Z,1.20
2022-09-07T22:01:47.291Z,1.60
2022-09-07T22:04:15.379Z,1.30
2022-09-07T22:06:43.906Z,1.37
2022-09-07T22:09:11.938Z,1.50
2022-09-07T22:11:44.062Z,1.37
2022-09-07T22:14:16.557Z,1.83
2022-09-07T22:16:44.654Z,1.23
2022-09-07T22:19:13.092Z,1.50
2022-09-07T22:21:41.402Z,1.50
2022-09-07T22:24:12.483Z,1.53
2022-09-07T22:26:40.495Z,1.30
2022-09-07T22:29:11.598Z,1.60
2022-09-07T22:31:42.205Z,1.53
2022-09-07T22:34:11.258Z,1.40
2022-09-07T22:36:41.115Z,1.40
2022-09-07T22:39:11.882Z,1.40
2022-09-07T22:41:41.673Z,1.53
2022-09-07T22:44:13.635Z,1.47
2022-09-07T22:46:44.932Z,1.23
2022-09-07T22:49:15.098Z,1.77
2022-09-07T22:51:43.493Z,1.20
2022-09-07T22:54:11.955Z,1.60
2022-09-07T22:56:40.601Z,1.50
2022-09-07T22:59:10.616Z,1.43
2022-09-07T23:01:39.275Z,1.50
2022-09-07T23:04:10.806Z,1.47
2022-09-07T23:06:40.575Z,1.27
2022-09-07T23:09:10.407Z,1.67
2022-09-07T23:11:39.414Z,1.50
2022-09-07T23:14:11.194Z,1.50
2022-09-07T23:16:39.799Z,1.67
2022-09-07T23:19:12.081Z,1.57
2022-09-07T23:21:40.251Z,1.70
2022-09-07T23:24:09.003Z,1.47
2022-09-07T23:26:37.097Z,1.40
2022-09-07T23:29:06.125Z,1.30
2022-09-07T23:31:37.085Z,1.30
2022-09-07T23:34:05.575Z,1.53
2022-09-07T23:36:35.745Z,1.93
2022-09-07T23:39:04.332Z,1.43
2022-09-07T23:41:32.833Z,1.70
2022-09-07T23:44:02.202Z,1.60
2022-09-07T23:46:30.472Z,1.47
2022-09-07T23:48:58.972Z,1.27
2022-09-07T23:51:27.231Z,1.47
2022-09-07T23:53:57.180Z,1.70
2022-09-07T23:56:26.325Z,1.63
2022-09-07T23:58:54.504Z,1.50
